Terminal Aerodrome Forecast
Issued by NWS

Home | Current Version | Previous Version | Text Only | Print | Product List | Glossary On
Versions: 1 2 3 4 5 6 7 8 9 10 11 12 13
000
FTAK31 PAJN 311700
TAFASI
TAF
PASI 311721Z 3118/0118 35004KT P6SM SCT200
     FM312100 06008KT P6SM SCT200
     FM010900 07008KT P6SM SCT200 WS020/07025KT
     FM011500 07008KT P6SM SCT200 WS020/07030KT=

USA.gov is the U.S. government's official web portal to all federal, state and local government web resources and services.